createdAt,value
2018-09-04T00:00:36.000Z,100362
2018-09-04T00:02:36.000Z,100370
2018-09-04T00:04:36.000Z,100371
2018-09-04T00:05:36.000Z,100368
2018-09-04T00:06:36.000Z,100371
2018-09-04T00:08:21.000Z,100371
2018-09-04T00:09:36.000Z,100373
2018-09-04T00:11:21.000Z,100374
2018-09-04T00:12:36.000Z,100376
2018-09-04T00:13:36.000Z,100378
2018-09-04T00:15:36.000Z,100376
2018-09-04T00:17:36.000Z,100379
2018-09-04T00:19:21.000Z,100377
2018-09-04T00:20:36.000Z,100378
2018-09-04T00:22:36.000Z,100365
2018-09-04T00:24:36.000Z,100367
2018-09-04T00:26:36.000Z,100361
2018-09-04T00:28:36.000Z,100356
2018-09-04T00:29:36.000Z,100353
2018-09-04T00:31:36.000Z,100355
2018-09-04T00:32:36.000Z,100359
2018-09-04T00:34:21.000Z,100356
2018-09-04T00:35:36.000Z,100351
2018-09-04T00:36:36.000Z,100354
2018-09-04T00:38:35.000Z,100355
2018-09-04T00:39:35.000Z,100360
2018-09-04T00:41:20.000Z,100359
2018-09-04T00:42:35.000Z,100358
2018-09-04T00:43:35.000Z,100356
2018-09-04T00:45:35.000Z,100362
2018-09-04T00:47:35.000Z,100364
2018-09-04T00:49:35.000Z,100364
2018-09-04T00:51:20.000Z,100363
2018-09-04T00:52:35.000Z,100365
2018-09-04T00:54:35.000Z,100361
2018-09-04T00:56:35.000Z,100357
2018-09-04T00:58:05.000Z,100356
2018-09-04T00:59:35.000Z,100356
2018-09-04T01:00:35.000Z,100356
2018-09-04T01:02:35.000Z,100357
2018-09-04T01:03:35.000Z,100359
2018-09-04T01:05:20.000Z,100330
2018-09-04T01:07:35.000Z,100359
2018-09-04T01:08:35.000Z,100359
2018-09-04T01:10:35.000Z,100363
2018-09-04T01:11:35.000Z,100362
2018-09-04T01:12:35.000Z,100365
2018-09-04T01:14:35.000Z,100364
2018-09-04T01:16:35.000Z,100362
2018-09-04T01:18:35.000Z,100360
2018-09-04T01:20:20.000Z,100362
2018-09-04T01:21:35.000Z,100362
2018-09-04T01:23:35.000Z,100363
2018-09-04T01:25:35.000Z,100369
2018-09-04T01:27:35.000Z,100362
2018-09-04T01:28:35.000Z,100366
2018-09-04T01:30:35.000Z,100362
2018-09-04T01:31:35.000Z,100357
2018-09-04T01:33:20.000Z,100359
2018-09-04T01:34:35.000Z,100361
2018-09-04T01:35:35.000Z,100361
2018-09-04T01:37:20.000Z,100355
2018-09-04T01:38:35.000Z,100356
2018-09-04T01:40:35.000Z,100357
2018-09-04T01:41:35.000Z,100356
2018-09-04T01:43:35.000Z,100355
2018-09-04T01:44:35.000Z,100360
2018-09-04T01:45:35.000Z,100353
2018-09-04T01:47:35.000Z,100352
2018-09-04T01:49:35.000Z,100351
2018-09-04T01:50:35.000Z,100351
2018-09-04T01:52:35.000Z,100357
2018-09-04T01:53:35.000Z,100357
2018-09-04T01:55:35.000Z,100354
2018-09-04T01:57:35.000Z,100355
2018-09-04T01:58:35.000Z,100357
2018-09-04T02:00:20.000Z,100348
2018-09-04T02:02:35.000Z,100357
2018-09-04T02:03:35.000Z,100362
2018-09-04T02:05:35.000Z,100357
2018-09-04T02:06:35.000Z,100351
2018-09-04T02:07:35.000Z,100360
2018-09-04T02:09:35.000Z,100354
2018-09-04T02:11:35.000Z,100358
2018-09-04T02:12:35.000Z,100357
2018-09-04T02:14:35.000Z,100354
2018-09-04T02:16:35.000Z,100354
2018-09-04T02:18:35.000Z,100358
2018-09-04T02:20:35.000Z,100360
2018-09-04T02:21:35.000Z,100349
2018-09-04T02:23:35.000Z,100352
2018-09-04T02:25:35.000Z,100346
2018-09-04T02:27:35.000Z,100350
2018-09-04T02:28:35.000Z,100347
2018-09-04T02:30:35.000Z,100339
2018-09-04T02:32:20.000Z,100336
2018-09-04T02:33:35.000Z,100335
2018-09-04T02:35:35.000Z,100332
2018-09-04T02:36:35.000Z,100340
2018-09-04T02:38:35.000Z,100339
2018-09-04T02:40:35.000Z,100338
2018-09-04T02:42:35.000Z,100342
2018-09-04T02:43:35.000Z,100346
2018-09-04T02:45:36.000Z,100346
2018-09-04T02:46:36.000Z,100347
2018-09-04T02:47:36.000Z,100344
2018-09-04T02:49:36.000Z,100350
2018-09-04T02:51:36.000Z,100346
2018-09-04T02:52:36.000Z,100342
2018-09-04T02:54:05.000Z,100341
2018-09-04T02:55:36.000Z,100341
2018-09-04T02:56:36.000Z,100339
2018-09-04T02:58:20.000Z,100341
2018-09-04T02:59:36.000Z,100337
2018-09-04T03:01:36.000Z,100339
2018-09-04T03:03:36.000Z,100336
2018-09-04T03:05:36.000Z,100337
2018-09-04T03:06:36.000Z,100339
2018-09-04T03:08:36.000Z,100338
2018-09-04T03:10:20.000Z,100340
2018-09-04T03:11:36.000Z,100343
2018-09-04T03:13:36.000Z,100342
2018-09-04T03:14:36.000Z,100339
2018-09-04T03:16:36.000Z,100340
2018-09-04T03:18:36.000Z,100339
2018-09-04T03:20:36.000Z,100336
2018-09-04T03:21:36.000Z,100336
2018-09-04T03:22:36.000Z,100335
2018-09-04T03:24:36.000Z,100326
2018-09-04T03:26:20.000Z,100334
2018-09-04T03:27:36.000Z,100336
2018-09-04T03:28:36.000Z,100332
2018-09-04T03:30:36.000Z,100331
2018-09-04T03:32:36.000Z,100332
2018-09-04T03:34:36.000Z,100333
2018-09-04T03:35:36.000Z,100331
2018-09-04T03:37:36.000Z,100329
2018-09-04T03:38:36.000Z,100330
2018-09-04T03:40:36.000Z,100332
2018-09-04T03:41:36.000Z,100331
2018-09-04T03:43:36.000Z,100334
2018-09-04T03:45:36.000Z,100332
2018-09-04T03:47:36.000Z,100335
2018-09-04T03:49:36.000Z,100336
2018-09-04T03:51:36.000Z,100333
2018-09-04T03:53:36.000Z,100331
2018-09-04T03:55:36.000Z,100330
2018-09-04T03:57:36.000Z,100328
2018-09-04T03:58:36.000Z,100327
2018-09-04T04:00:36.000Z,100333
2018-09-04T04:02:36.000Z,100331
2018-09-04T04:03:36.000Z,100335
2018-09-04T04:05:36.000Z,100334
2018-09-04T04:07:20.000Z,100329
2018-09-04T04:08:36.000Z,100328
2018-09-04T04:09:36.000Z,100327
2018-09-04T04:11:21.000Z,100294
2018-09-04T04:12:36.000Z,100334
2018-09-04T04:13:36.000Z,100337
2018-09-04T04:14:36.000Z,100339
2018-09-04T04:15:36.000Z,100342
2018-09-04T04:17:36.000Z,100339
2018-09-04T04:19:36.000Z,100338
2018-09-04T04:21:36.000Z,100341
2018-09-04T04:22:36.000Z,100345
2018-09-04T04:24:36.000Z,100335
2018-09-04T04:26:36.000Z,100339
2018-09-04T04:28:36.000Z,100340
2018-09-04T04:30:36.000Z,100342
2018-09-04T04:32:36.000Z,100345
2018-09-04T04:33:36.000Z,100340
2018-09-04T04:35:36.000Z,100342
2018-09-04T04:37:20.000Z,100340
2018-09-04T04:38:36.000Z,100338
2018-09-04T04:40:36.000Z,100343
2018-09-04T04:41:36.000Z,100344
2018-09-04T04:43:36.000Z,100347
2018-09-04T04:44:36.000Z,100353
2018-09-04T04:46:36.000Z,100357
2018-09-04T04:48:36.000Z,100355
2018-09-04T04:50:36.000Z,100366
2018-09-04T04:51:36.000Z,100360
2018-09-04T04:53:36.000Z,100363
2018-09-04T04:55:36.000Z,100366
2018-09-04T04:56:36.000Z,100371
2018-09-04T04:58:36.000Z,100368
2018-09-04T05:00:36.000Z,100370
2018-09-04T05:02:36.000Z,100369
2018-09-04T05:04:36.000Z,100375
2018-09-04T05:05:36.000Z,100377
2018-09-04T05:07:36.000Z,100382
2018-09-04T05:09:36.000Z,100386
2018-09-04T05:10:36.000Z,100384
2018-09-04T05:11:36.000Z,100384
2018-09-04T05:12:36.000Z,100379
2018-09-04T05:13:36.000Z,100382
2018-09-04T05:14:36.000Z,100387
2018-09-04T05:15:36.000Z,100386
2018-09-04T05:17:36.000Z,100385
2018-09-04T05:18:36.000Z,100390
2018-09-04T05:20:36.000Z,100393
2018-09-04T05:22:36.000Z,100384
2018-09-04T05:23:36.000Z,100386
2018-09-04T05:25:36.000Z,100390
2018-09-04T05:26:36.000Z,100389
2018-09-04T05:28:36.000Z,100391
2018-09-04T05:30:20.000Z,100392
2018-09-04T05:31:36.000Z,100387
2018-09-04T05:33:36.000Z,100393
2018-09-04T05:34:36.000Z,100392
2018-09-04T05:36:36.000Z,100388
2018-09-04T05:38:20.000Z,100386
2018-09-04T05:39:36.000Z,100393
2018-09-04T05:41:36.000Z,100389
2018-09-04T05:42:36.000Z,100395
2018-09-04T05:44:20.000Z,100391
2018-09-04T05:45:36.000Z,100391
2018-09-04T05:47:36.000Z,100390
2018-09-04T05:48:36.000Z,100384
2018-09-04T05:50:36.000Z,100385
2018-09-04T05:52:36.000Z,100385
2018-09-04T05:54:36.000Z,100385
2018-09-04T05:56:36.000Z,100385
2018-09-04T05:58:36.000Z,100392
2018-09-04T06:00:36.000Z,100397
2018-09-04T06:01:36.000Z,100396
2018-09-04T06:03:36.000Z,100393
2018-09-04T06:04:36.000Z,100398
2018-09-04T06:05:36.000Z,100394
2018-09-04T06:07:36.000Z,100396
2018-09-04T06:09:36.000Z,100394
2018-09-04T06:11:36.000Z,100399
2018-09-04T06:13:36.000Z,100401
2018-09-04T06:15:36.000Z,100409
2018-09-04T06:17:36.000Z,100414
2018-09-04T06:19:36.000Z,100417
2018-09-04T06:21:36.000Z,100419
2018-09-04T06:23:36.000Z,100419
2018-09-04T06:25:36.000Z,100417
2018-09-04T06:27:36.000Z,100418
2018-09-04T06:29:36.000Z,100412
2018-09-04T06:31:36.000Z,100419
2018-09-04T06:33:05.000Z,100417
2018-09-04T06:34:36.000Z,100412
2018-09-04T06:36:36.000Z,100421
2018-09-04T06:38:20.000Z,100417
2018-09-04T06:39:36.000Z,100420
2018-09-04T06:40:36.000Z,100421
2018-09-04T06:42:36.000Z,100421
2018-09-04T06:44:36.000Z,100419
2018-09-04T06:46:36.000Z,100421
2018-09-04T06:47:36.000Z,100420
2018-09-04T06:48:36.000Z,100413
2018-09-04T06:50:36.000Z,100415
2018-09-04T06:52:36.000Z,100413
2018-09-04T06:54:36.000Z,100412
2018-09-04T06:56:36.000Z,100421
2018-09-04T06:58:36.000Z,100427
2018-09-04T07:00:35.000Z,100429
2018-09-04T07:01:35.000Z,100425
2018-09-04T07:03:35.000Z,100428
2018-09-04T07:05:35.000Z,100431
2018-09-04T07:06:35.000Z,100433
2018-09-04T07:07:36.000Z,100424
2018-09-04T07:09:20.000Z,100431
2018-09-04T07:10:35.000Z,100426
2018-09-04T07:12:35.000Z,100428
2018-09-04T07:14:35.000Z,100426
2018-09-04T07:15:35.000Z,100422
2018-09-04T07:17:35.000Z,100417
2018-09-04T07:18:35.000Z,100414
2018-09-04T07:20:20.000Z,100421
2018-09-04T07:21:35.000Z,100417
2018-09-04T07:23:05.000Z,100422
2018-09-04T07:24:35.000Z,100422
2018-09-04T07:26:05.000Z,100424
2018-09-04T07:27:35.000Z,100430
2018-09-04T07:29:35.000Z,100427
2018-09-04T07:31:35.000Z,100429
2018-09-04T07:33:35.000Z,100432
2018-09-04T07:35:35.000Z,100425
2018-09-04T07:36:35.000Z,100425
2018-09-04T07:38:35.000Z,100426
2018-09-04T07:40:35.000Z,100421
2018-09-04T07:42:35.000Z,100428
2018-09-04T07:44:20.000Z,100424
2018-09-04T07:46:35.000Z,100434
2018-09-04T07:47:35.000Z,100431
2018-09-04T07:49:35.000Z,100439
2018-09-04T07:51:35.000Z,100440
2018-09-04T07:53:35.000Z,100444
2018-09-04T07:55:35.000Z,100441
2018-09-04T07:56:35.000Z,100441
2018-09-04T07:58:35.000Z,100438
2018-09-04T08:00:35.000Z,100441
2018-09-04T08:02:35.000Z,100446
2018-09-04T08:04:35.000Z,100443
2018-09-04T08:06:20.000Z,100443
2018-09-04T08:07:35.000Z,100445
2018-09-04T08:09:35.000Z,100447
2018-09-04T08:11:35.000Z,100444
2018-09-04T08:12:35.000Z,100446
2018-09-04T08:14:20.000Z,100441
2018-09-04T08:15:35.000Z,100443
2018-09-04T08:16:35.000Z,100444
2018-09-04T08:18:35.000Z,100445
2018-09-04T08:19:35.000Z,100443
2018-09-04T08:20:35.000Z,100441
2018-09-04T08:22:35.000Z,100438
2018-09-04T08:24:35.000Z,100437
2018-09-04T08:26:35.000Z,100448
2018-09-04T08:27:35.000Z,100442
2018-09-04T08:29:35.000Z,100449
2018-09-04T08:31:35.000Z,100448
2018-09-04T08:32:35.000Z,100441
2018-09-04T08:34:35.000Z,100444
2018-09-04T08:36:35.000Z,100444
2018-09-04T08:38:35.000Z,100451
2018-09-04T08:39:35.000Z,100448
2018-09-04T08:41:35.000Z,100449
2018-09-04T08:43:35.000Z,100448
2018-09-04T08:45:20.000Z,100454
2018-09-04T08:46:35.000Z,100454
2018-09-04T08:47:35.000Z,100451
2018-09-04T08:49:35.000Z,100458
2018-09-04T08:51:35.000Z,100454
2018-09-04T08:53:35.000Z,100455
2018-09-04T08:54:35.000Z,100456
2018-09-04T08:56:35.000Z,100453
2018-09-04T08:58:35.000Z,100454
2018-09-04T08:59:35.000Z,100453
2018-09-04T09:01:20.000Z,100445
2018-09-04T09:02:35.000Z,100450
2018-09-04T09:03:35.000Z,100438
2018-09-04T09:05:35.000Z,100441
2018-09-04T09:07:35.000Z,100443
2018-09-04T09:09:35.000Z,100447
2018-09-04T09:10:35.000Z,100446
2018-09-04T09:12:35.000Z,100442
2018-09-04T09:14:20.000Z,100439
2018-09-04T09:15:35.000Z,100438
2018-09-04T09:17:35.000Z,100437
2018-09-04T09:18:35.000Z,100434
2018-09-04T09:20:05.000Z,100432
2018-09-04T09:21:35.000Z,100433
2018-09-04T09:23:20.000Z,100430
2018-09-04T09:24:35.000Z,100434
2018-09-04T09:26:35.000Z,100430
2018-09-04T09:28:20.000Z,100431
2018-09-04T09:29:35.000Z,100435
2018-09-04T09:31:35.000Z,100436
2018-09-04T09:33:35.000Z,100435
2018-09-04T09:35:35.000Z,100430
2018-09-04T09:37:35.000Z,100433
2018-09-04T09:38:35.000Z,100431
2018-09-04T09:40:35.000Z,100429
2018-09-04T09:42:35.000Z,100428
2018-09-04T09:43:35.000Z,100433
2018-09-04T09:45:20.000Z,100432
2018-09-04T09:46:35.000Z,100439
2018-09-04T09:48:35.000Z,100435
2018-09-04T09:50:35.000Z,100438
2018-09-04T09:52:35.000Z,100437
2018-09-04T09:54:35.000Z,100439
2018-09-04T09:56:35.000Z,100436
2018-09-04T09:58:35.000Z,100435
2018-09-04T10:00:35.000Z,100432
2018-09-04T10:02:20.000Z,100431
2018-09-04T10:03:35.000Z,100426
2018-09-04T10:05:35.000Z,100424
2018-09-04T10:07:35.000Z,100423
2018-09-04T10:09:35.000Z,100427
2018-09-04T10:10:35.000Z,100429
2018-09-04T10:12:36.000Z,100427
2018-09-04T10:13:36.000Z,100429
2018-09-04T10:15:21.000Z,100430
2018-09-04T10:16:36.000Z,100426
2018-09-04T10:17:36.000Z,100425
2018-09-04T10:18:36.000Z,100429
2018-09-04T10:20:36.000Z,100430
2018-09-04T10:22:21.000Z,100429
2018-09-04T10:23:36.000Z,100428
2018-09-04T10:25:36.000Z,100427
2018-09-04T10:27:36.000Z,100430
2018-09-04T10:28:36.000Z,100429
2018-09-04T10:30:36.000Z,100426
2018-09-04T10:32:36.000Z,100423
2018-09-04T10:34:36.000Z,100419
2018-09-04T10:36:36.000Z,100420
2018-09-04T10:37:36.000Z,100426
2018-09-04T10:39:36.000Z,100424
2018-09-04T10:41:36.000Z,100424
2018-09-04T10:43:21.000Z,100419
2018-09-04T10:44:36.000Z,100407
2018-09-04T10:46:21.000Z,100416
2018-09-04T10:47:36.000Z,100415
2018-09-04T10:49:36.000Z,100412
2018-09-04T10:50:36.000Z,100413
2018-09-04T10:52:36.000Z,100410
2018-09-04T10:53:36.000Z,100409
2018-09-04T10:54:36.000Z,100408
2018-09-04T10:56:36.000Z,100411
2018-09-04T10:58:36.000Z,100405
2018-09-04T11:00:36.000Z,100399
2018-09-04T11:02:36.000Z,100403
2018-09-04T11:04:21.000Z,100404
2018-09-04T11:05:36.000Z,100399
2018-09-04T11:07:36.000Z,100396
2018-09-04T11:08:36.000Z,100399
2018-09-04T11:10:21.000Z,100400
2018-09-04T11:11:36.000Z,100396
2018-09-04T11:12:36.000Z,100392
2018-09-04T11:14:36.000Z,100393
2018-09-04T11:16:36.000Z,100387
2018-09-04T11:18:36.000Z,100392
2018-09-04T11:19:36.000Z,100389
2018-09-04T11:21:35.000Z,100390
2018-09-04T11:22:36.000Z,100389
2018-09-04T11:23:36.000Z,100385
2018-09-04T11:24:36.000Z,100390
2018-09-04T11:26:36.000Z,100389
2018-09-04T11:28:35.000Z,100391
2018-09-04T11:29:36.000Z,100388
2018-09-04T11:34:21.000Z,100385
2018-09-04T11:35:51.000Z,100387
2018-09-04T11:37:07.000Z,100387
2018-09-04T11:38:07.000Z,100379
2018-09-04T11:40:07.000Z,100387
2018-09-04T11:42:07.000Z,100391
2018-09-04T11:44:07.000Z,100385
2018-09-04T11:45:07.000Z,100387
2018-09-04T11:47:07.000Z,100377
2018-09-04T11:49:07.000Z,100382
2018-09-04T11:51:07.000Z,100379
2018-09-04T11:53:07.000Z,100375
2018-09-04T11:54:51.000Z,100379
2018-09-04T11:56:07.000Z,100374
2018-09-04T11:57:07.000Z,100376
2018-09-04T11:59:07.000Z,100382
2018-09-04T12:00:07.000Z,100378
2018-09-04T12:01:07.000Z,100383
2018-09-04T12:02:51.000Z,100379
2018-09-04T12:04:07.000Z,100381
2018-09-04T12:06:07.000Z,100378
2018-09-04T12:07:07.000Z,100383
2018-09-04T12:09:07.000Z,100379
2018-09-04T12:10:07.000Z,100379
2018-09-04T12:12:07.000Z,100382
2018-09-04T12:13:07.000Z,100390
2018-09-04T12:15:07.000Z,100388
2018-09-04T12:16:07.000Z,100387
2018-09-04T12:18:07.000Z,100386
2018-09-04T12:20:07.000Z,100383
2018-09-04T12:21:07.000Z,100382
2018-09-04T12:23:07.000Z,100382
2018-09-04T12:25:07.000Z,100372
2018-09-04T12:27:07.000Z,100371
2018-09-04T12:28:07.000Z,100370
2018-09-04T12:29:07.000Z,100369
2018-09-04T12:31:07.000Z,100369
2018-09-04T12:32:07.000Z,100371
2018-09-04T12:33:07.000Z,100372
2018-09-04T12:34:07.000Z,100368
2018-09-04T12:35:07.000Z,100369
2018-09-04T12:36:52.000Z,100369
2018-09-04T12:38:07.000Z,100371
2018-09-04T12:39:07.000Z,100374
2018-09-04T12:40:07.000Z,100372
2018-09-04T12:42:07.000Z,100371
2018-09-04T12:44:07.000Z,100369
2018-09-04T12:45:52.000Z,100372
2018-09-04T12:47:07.000Z,100367
2018-09-04T12:49:07.000Z,100372
2018-09-04T12:51:07.000Z,100372
2018-09-04T12:52:07.000Z,100373
2018-09-04T12:53:07.000Z,100375
2018-09-04T12:55:07.000Z,100372
2018-09-04T12:56:36.000Z,100376
2018-09-04T12:58:07.000Z,100367
2018-09-04T13:00:07.000Z,100366
2018-09-04T13:02:07.000Z,100366
2018-09-04T13:03:52.000Z,100367
2018-09-04T13:05:07.000Z,100363
2018-09-04T13:10:23.000Z,100362
2018-09-04T13:12:09.000Z,100357
2018-09-04T13:13:09.000Z,100358
2018-09-04T13:15:09.000Z,100360
2018-09-04T13:17:09.000Z,100355
2018-09-04T13:18:09.000Z,100360
2018-09-04T13:19:09.000Z,100355
2018-09-04T13:20:09.000Z,100359
2018-09-04T13:22:09.000Z,100359
2018-09-04T13:23:09.000Z,100355
2018-09-04T13:25:09.000Z,100364
2018-09-04T13:26:54.000Z,100352
2018-09-04T13:29:09.000Z,100353
2018-09-04T13:31:09.000Z,100355
2018-09-04T13:32:39.000Z,100350
2018-09-04T13:34:09.000Z,100347
2018-09-04T13:35:09.000Z,100338
2018-09-04T13:37:09.000Z,100337
2018-09-04T13:39:09.000Z,100334
2018-09-04T13:41:09.000Z,100327
2018-09-04T13:42:53.000Z,100331
2018-09-04T13:44:09.000Z,100331
2018-09-04T13:46:09.000Z,100328
2018-09-04T13:48:09.000Z,100330
2018-09-04T13:50:09.000Z,100324
2018-09-04T13:52:09.000Z,100329
2018-09-04T13:53:38.000Z,100331
2018-09-04T13:55:09.000Z,100329
2018-09-04T13:57:09.000Z,100333
2018-09-04T13:59:09.000Z,100336
2018-09-04T14:00:09.000Z,100339
2018-09-04T14:02:09.000Z,100336
2018-09-04T14:04:09.000Z,100324
2018-09-04T14:06:09.000Z,100326
2018-09-04T14:08:09.000Z,100325
2018-09-04T14:10:09.000Z,100332
2018-09-04T14:12:09.000Z,100327
2018-09-04T14:14:09.000Z,100325
2018-09-04T14:15:09.000Z,100325
2018-09-04T14:16:09.000Z,100333
2018-09-04T14:18:09.000Z,100335
2018-09-04T14:20:09.000Z,100329
2018-09-04T14:22:09.000Z,100334
2018-09-04T14:24:09.000Z,100336
2018-09-04T14:25:54.000Z,100340
2018-09-04T14:27:09.000Z,100336
2018-09-04T14:28:39.000Z,100337
2018-09-04T14:29:46.000Z,100345
2018-09-04T14:31:09.000Z,100338
2018-09-04T14:33:09.000Z,100338
2018-09-04T14:35:09.000Z,100338
2018-09-04T14:36:09.000Z,100339
2018-09-04T14:38:09.000Z,100338
2018-09-04T14:39:54.000Z,100344
2018-09-04T14:40:54.000Z,100342
2018-09-04T14:42:09.000Z,100343
2018-09-04T14:43:09.000Z,100339
2018-09-04T14:45:09.000Z,100345
2018-09-04T14:47:09.000Z,100346
2018-09-04T14:49:09.000Z,100348
2018-09-04T14:50:09.000Z,100349
2018-09-04T14:52:09.000Z,100344
2018-09-04T14:54:09.000Z,100347
2018-09-04T14:55:09.000Z,100352
2018-09-04T14:56:54.000Z,100354
2018-09-04T14:58:09.000Z,100352
2018-09-04T15:00:09.000Z,100355
2018-09-04T15:01:09.000Z,100357
2018-09-04T15:02:54.000Z,100356
2018-09-04T15:04:09.000Z,100359
2018-09-04T15:05:54.000Z,100356
2018-09-04T15:07:09.000Z,100361
2018-09-04T15:09:09.000Z,100360
2018-09-04T15:10:09.000Z,100365
2018-09-04T15:11:54.000Z,100357
2018-09-04T15:13:09.000Z,100356
2018-09-04T15:14:54.000Z,100353
2018-09-04T15:16:09.000Z,100357
2018-09-04T15:18:09.000Z,100355
2018-09-04T15:20:09.000Z,100358
2018-09-04T15:22:09.000Z,100359
2018-09-04T15:24:09.000Z,100353
2018-09-04T15:25:09.000Z,100357
2018-09-04T15:27:09.000Z,100351
2018-09-04T15:28:54.000Z,100354
2018-09-04T15:31:09.000Z,100347
2018-09-04T15:32:09.000Z,100353
2018-09-04T15:34:09.000Z,100344
2018-09-04T15:35:09.000Z,100349
2018-09-04T15:36:54.000Z,100354
2018-09-04T15:38:09.000Z,100350
2018-09-04T15:40:09.000Z,100350
2018-09-04T15:41:09.000Z,100358
2018-09-04T15:43:09.000Z,100351
2018-09-04T15:44:09.000Z,100355
2018-09-04T15:46:09.000Z,100359
2018-09-04T15:47:09.000Z,100362
2018-09-04T15:48:09.000Z,100367
2018-09-04T15:50:09.000Z,100367
2018-09-04T15:51:09.000Z,100371
2018-09-04T15:52:09.000Z,100366
2018-09-04T15:54:09.000Z,100375
2018-09-04T15:55:09.000Z,100367
2018-09-04T15:57:09.000Z,100370
2018-09-04T15:59:09.000Z,100369
2018-09-04T16:01:09.000Z,100365
2018-09-04T16:02:09.000Z,100366
2018-09-04T16:03:54.000Z,100356
2018-09-04T16:05:09.000Z,100356
2018-09-04T16:07:09.000Z,100357
2018-09-04T16:08:39.000Z,100359
2018-09-04T16:10:09.000Z,100360
2018-09-04T16:11:09.000Z,100360
2018-09-04T16:13:09.000Z,100366
2018-09-04T16:14:54.000Z,100370
2018-09-04T16:16:09.000Z,100375
2018-09-04T16:18:09.000Z,100371
2018-09-04T16:19:09.000Z,100374
2018-09-04T16:20:09.000Z,100372
2018-09-04T16:22:09.000Z,100379
2018-09-04T16:23:09.000Z,100375
2018-09-04T16:25:09.000Z,100376
2018-09-04T16:27:09.000Z,100374
2018-09-04T16:29:09.000Z,100377
2018-09-04T16:30:09.000Z,100374
2018-09-04T16:32:09.000Z,100379
2018-09-04T16:34:09.000Z,100382
2018-09-04T16:36:09.000Z,100385
2018-09-04T16:38:09.000Z,100387
2018-09-04T16:39:54.000Z,100390
2018-09-04T16:41:09.000Z,100390
2018-09-04T16:42:39.000Z,100394
2018-09-04T16:44:09.000Z,100396
2018-09-04T16:45:09.000Z,100398
2018-09-04T16:47:09.000Z,100393
2018-09-04T16:49:09.000Z,100388
2018-09-04T16:50:54.000Z,100388
2018-09-04T16:52:09.000Z,100391
2018-09-04T16:53:54.000Z,100388
2018-09-04T16:55:09.000Z,100395
2018-09-04T16:57:09.000Z,100399
2018-09-04T16:58:09.000Z,100402
2018-09-04T16:59:09.000Z,100399
2018-09-04T17:00:09.000Z,100407
2018-09-04T17:01:54.000Z,100400
2018-09-04T17:03:09.000Z,100397
2018-09-04T17:04:09.000Z,100404
2018-09-04T17:06:09.000Z,100401
2018-09-04T17:07:09.000Z,100408
2018-09-04T17:09:09.000Z,100404
2018-09-04T17:10:09.000Z,100405
2018-09-04T17:12:09.000Z,100402
2018-09-04T17:13:39.000Z,100406
2018-09-04T17:15:09.000Z,100409
2018-09-04T17:17:09.000Z,100410
2018-09-04T17:18:09.000Z,100405
2018-09-04T17:20:09.000Z,100405
2018-09-04T17:22:09.000Z,100409
2018-09-04T17:24:09.000Z,100410
2018-09-04T17:25:39.000Z,100411
2018-09-04T17:27:09.000Z,100414
2018-09-04T17:28:09.000Z,100414
2018-09-04T17:29:54.000Z,100413
2018-09-04T17:31:09.000Z,100409
2018-09-04T17:32:09.000Z,100414
2018-09-04T17:34:09.000Z,100409
2018-09-04T17:36:09.000Z,100411
2018-09-04T17:38:09.000Z,100415
2018-09-04T17:40:09.000Z,100417
2018-09-04T17:41:38.000Z,100417
2018-09-04T17:42:54.000Z,100406
2018-09-04T17:44:09.000Z,100415
2018-09-04T17:46:09.000Z,100409
2018-09-04T17:47:09.000Z,100410
2018-09-04T17:49:09.000Z,100415
2018-09-04T17:51:09.000Z,100416
2018-09-04T17:53:09.000Z,100414
2018-09-04T17:55:09.000Z,100413
2018-09-04T17:56:09.000Z,100417
2018-09-04T17:58:09.000Z,100426
2018-09-04T17:59:09.000Z,100426
2018-09-04T18:01:09.000Z,100430
2018-09-04T18:03:09.000Z,100436
2018-09-04T18:04:38.000Z,100432
2018-09-04T18:06:09.000Z,100433
2018-09-04T18:07:09.000Z,100431
2018-09-04T18:09:09.000Z,100440
2018-09-04T18:11:09.000Z,100437
2018-09-04T18:13:09.000Z,100439
2018-09-04T18:15:09.000Z,100437
2018-09-04T18:17:09.000Z,100440
2018-09-04T18:19:09.000Z,100437
2018-09-04T18:20:54.000Z,100442
2018-09-04T18:22:09.000Z,100439
2018-09-04T18:23:09.000Z,100439
2018-09-04T18:25:09.000Z,100434
2018-09-04T18:27:09.000Z,100433
2018-09-04T18:29:09.000Z,100436
2018-09-04T18:30:54.000Z,100436
2018-09-04T18:32:09.000Z,100439
2018-09-04T18:33:09.000Z,100439
2018-09-04T18:35:09.000Z,100435
2018-09-04T18:37:09.000Z,100442
2018-09-04T18:39:09.000Z,100443
2018-09-04T18:41:09.000Z,100440
2018-09-04T18:42:09.000Z,100449
2018-09-04T18:44:09.000Z,100446
2018-09-04T18:46:09.000Z,100452
2018-09-04T18:48:09.000Z,100444
2018-09-04T18:50:09.000Z,100455
2018-09-04T18:52:09.000Z,100456
2018-09-04T18:53:09.000Z,100459
2018-09-04T18:55:09.000Z,100464
2018-09-04T18:57:09.000Z,100454
2018-09-04T18:59:09.000Z,100463
2018-09-04T19:01:09.000Z,100464
2018-09-04T19:03:09.000Z,100461
2018-09-04T19:04:54.000Z,100460
2018-09-04T19:06:09.000Z,100460
2018-09-04T19:07:09.000Z,100462
2018-09-04T19:09:09.000Z,100464
2018-09-04T19:11:09.000Z,100463
2018-09-04T19:12:09.000Z,100457
2018-09-04T19:14:09.000Z,100462
2018-09-04T19:16:09.000Z,100465
2018-09-04T19:17:54.000Z,100464
2018-09-04T19:19:09.000Z,100469
2018-09-04T19:20:09.000Z,100460
2018-09-04T19:22:09.000Z,100467
2018-09-04T19:23:09.000Z,100460
2018-09-04T19:25:09.000Z,100466
2018-09-04T19:27:09.000Z,100472
2018-09-04T19:28:09.000Z,100466
2018-09-04T19:30:09.000Z,100468
2018-09-04T19:32:09.000Z,100465
2018-09-04T19:34:09.000Z,100465
2018-09-04T19:36:09.000Z,100466
2018-09-04T19:37:09.000Z,100464
2018-09-04T19:39:09.000Z,100466
2018-09-04T19:41:09.000Z,100458
2018-09-04T19:43:09.000Z,100459
2018-09-04T19:44:54.000Z,100464
2018-09-04T19:46:09.000Z,100462
2018-09-04T19:47:09.000Z,100463
2018-09-04T19:49:09.000Z,100471
2018-09-04T19:51:09.000Z,100469
2018-09-04T19:52:09.000Z,100474
2018-09-04T19:53:54.000Z,100473
2018-09-04T19:54:54.000Z,100455
2018-09-04T19:56:09.000Z,100473
2018-09-04T19:58:09.000Z,100469
2018-09-04T20:00:09.000Z,100473
2018-09-04T20:02:09.000Z,100470
2018-09-04T20:03:09.000Z,100466
2018-09-04T20:04:54.000Z,100471
2018-09-04T20:06:09.000Z,100477
2018-09-04T20:08:09.000Z,100473
2018-09-04T20:10:09.000Z,100471
2018-09-04T20:12:09.000Z,100468
2018-09-04T20:13:39.000Z,100466
2018-09-04T20:15:09.000Z,100468
2018-09-04T20:17:09.000Z,100467
2018-09-04T20:18:09.000Z,100468
2018-09-04T20:20:09.000Z,100468
2018-09-04T20:22:09.000Z,100472
2018-09-04T20:24:09.000Z,100468